sensor_id;sensor_type;location;lat;lon;timestamp;pressure;altitude;pressure_sealevel;temperature;humidity
52949;BME280;38812;50.942;3.644;2023-01-29T00:01:04;103128.13;;;-2.99;100.00
52949;BME280;38812;50.942;3.644;2023-01-29T00:03:30;103138.72;;;-2.95;100.00
52949;BME280;38812;50.942;3.644;2023-01-29T00:05:55;103127.22;;;-3.00;100.00
52949;BME280;38812;50.942;3.644;2023-01-29T00:08:21;103121.19;;;-3.00;100.00
52949;BME280;38812;50.942;3.644;2023-01-29T00:10:46;103125.31;;;-3.02;100.00
52949;BME280;38812;50.942;3.644;2023-01-29T00:13:12;103118.91;;;-3.21;100.00
52949;BME280;38812;50.942;3.644;2023-01-29T00:15:37;103109.22;;;-3.25;100.00
52949;BME280;38812;50.942;3.644;2023-01-29T00:18:03;103121.63;;;-2.94;100.00
52949;BME280;38812;50.942;3.644;2023-01-29T00:20:29;103115.13;;;-2.89;100.00
52949;BME280;38812;50.942;3.644;2023-01-29T00:22:54;103119.28;;;-2.91;100.00
52949;BME280;38812;50.942;3.644;2023-01-29T00:25:20;103101.22;;;-3.04;100.00
52949;BME280;38812;50.942;3.644;2023-01-29T00:27:45;103102.47;;;-3.23;100.00
52949;BME280;38812;50.942;3.644;2023-01-29T00:30:11;103092.69;;;-3.40;100.00
52949;BME280;38812;50.942;3.644;2023-01-29T00:32:38;103112.44;;;-3.39;100.00
52949;BME280;38812;50.942;3.644;2023-01-29T00:35:04;103101.53;;;-3.48;100.00
52949;BME280;38812;50.942;3.644;2023-01-29T00:37:30;103107.59;;;-3.23;100.00
52949;BME280;38812;50.942;3.644;2023-01-29T00:39:55;103104.53;;;-3.42;100.00
52949;BME280;38812;50.942;3.644;2023-01-29T00:42:21;103100.09;;;-3.56;100.00
52949;BME280;38812;50.942;3.644;2023-01-29T00:45:15;103106.97;;;-3.43;100.00
52949;BME280;38812;50.942;3.644;2023-01-29T00:47:41;103096.97;;;-3.52;100.00
52949;BME280;38812;50.942;3.644;2023-01-29T00:50:09;103094.25;;;-3.42;100.00
52949;BME280;38812;50.942;3.644;2023-01-29T00:52:35;103101.38;;;-3.38;100.00
52949;BME280;38812;50.942;3.644;2023-01-29T00:55:01;103096.91;;;-3.29;100.00
52949;BME280;38812;50.942;3.644;2023-01-29T00:57:32;103085.53;;;-3.32;100.00
52949;BME280;38812;50.942;3.644;2023-01-29T00:59:57;103097.81;;;-3.28;100.00
52949;BME280;38812;50.942;3.644;2023-01-29T01:02:23;103098.94;;;-3.25;100.00
52949;BME280;38812;50.942;3.644;2023-01-29T01:05:09;103085.59;;;-3.19;100.00
52949;BME280;38812;50.942;3.644;2023-01-29T01:07:38;103078.84;;;-3.05;100.00
52949;BME280;38812;50.942;3.644;2023-01-29T01:10:05;103080.16;;;-2.99;100.00
52949;BME280;38812;50.942;3.644;2023-01-29T01:12:47;103065.69;;;-3.22;100.00
52949;BME280;38812;50.942;3.644;2023-01-29T01:15:15;103075.88;;;-3.23;100.00
52949;BME280;38812;50.942;3.644;2023-01-29T01:17:40;103085.69;;;-3.18;100.00
52949;BME280;38812;50.942;3.644;2023-01-29T01:20:06;103082.78;;;-3.22;100.00
52949;BME280;38812;50.942;3.644;2023-01-29T01:22:31;103071.00;;;-3.32;100.00
52949;BME280;38812;50.942;3.644;2023-01-29T01:24:57;103107.03;;;-3.07;100.00
52949;BME280;38812;50.942;3.644;2023-01-29T01:27:22;103101.06;;;-2.94;100.00
52949;BME280;38812;50.942;3.644;2023-01-29T01:29:48;103088.66;;;-2.75;100.00
52949;BME280;38812;50.942;3.644;2023-01-29T01:32:13;103085.72;;;-2.68;100.00
52949;BME280;38812;50.942;3.644;2023-01-29T01:34:40;103071.09;;;-2.56;100.00
52949;BME280;38812;50.942;3.644;2023-01-29T01:37:05;103060.34;;;-2.50;100.00
52949;BME280;38812;50.942;3.644;2023-01-29T01:39:30;103073.16;;;-2.25;100.00
52949;BME280;38812;50.942;3.644;2023-01-29T01:41:56;103067.03;;;-2.27;100.00
52949;BME280;38812;50.942;3.644;2023-01-29T01:47:39;103062.97;;;-2.24;100.00
52949;BME280;38812;50.942;3.644;2023-01-29T01:50:18;103059.31;;;-2.27;100.00
52949;BME280;38812;50.942;3.644;2023-01-29T01:52:48;103056.53;;;-2.30;100.00
52949;BME280;38812;50.942;3.644;2023-01-29T01:55:18;103067.44;;;-2.21;100.00
52949;BME280;38812;50.942;3.644;2023-01-29T01:57:47;103075.16;;;-2.08;100.00
52949;BME280;38812;50.942;3.644;2023-01-29T02:00:16;103062.28;;;-2.08;100.00
52949;BME280;38812;50.942;3.644;2023-01-29T02:02:43;103058.25;;;-2.04;100.00
52949;BME280;38812;50.942;3.644;2023-01-29T02:05:31;103049.41;;;-2.08;100.00
52949;BME280;38812;50.942;3.644;2023-01-29T02:08:25;103072.63;;;-1.95;100.00
52949;BME280;38812;50.942;3.644;2023-01-29T02:11:11;103060.22;;;-2.00;100.00
52949;BME280;38812;50.942;3.644;2023-01-29T02:13:37;103082.09;;;-1.94;100.00
52949;BME280;38812;50.942;3.644;2023-01-29T02:16:02;103074.88;;;-1.86;100.00
52949;BME280;38812;50.942;3.644;2023-01-29T02:18:28;103093.44;;;-1.79;100.00
52949;BME280;38812;50.942;3.644;2023-01-29T02:21:49;103104.22;;;-1.58;100.00
52949;BME280;38812;50.942;3.644;2023-01-29T02:24:20;103110.06;;;-1.60;100.00
52949;BME280;38812;50.942;3.644;2023-01-29T02:27:06;103077.19;;;-1.78;100.00
52949;BME280;38812;50.942;3.644;2023-01-29T02:32:33;103102.72;;;-1.67;100.00
52949;BME280;38812;50.942;3.644;2023-01-29T02:35:27;103079.31;;;-1.70;100.00
52949;BME280;38812;50.942;3.644;2023-01-29T02:38:09;103086.97;;;-1.59;100.00
52949;BME280;38812;50.942;3.644;2023-01-29T02:40:52;103087.16;;;-1.56;100.00
52949;BME280;38812;50.942;3.644;2023-01-29T02:49:37;103094.53;;;-1.21;100.00
52949;BME280;38812;50.942;3.644;2023-01-29T02:52:20;103088.53;;;-1.34;100.00
52949;BME280;38812;50.942;3.644;2023-01-29T02:55:11;103082.69;;;-1.45;100.00
52949;BME280;38812;50.942;3.644;2023-01-29T02:57:40;103083.28;;;-1.36;100.00
52949;BME280;38812;50.942;3.644;2023-01-29T03:05:31;103067.06;;;-1.20;100.00
52949;BME280;38812;50.942;3.644;2023-01-29T03:08:05;103081.00;;;-1.04;100.00
52949;BME280;38812;50.942;3.644;2023-01-29T03:10:43;103076.69;;;-1.18;100.00
52949;BME280;38812;50.942;3.644;2023-01-29T03:13:31;103074.19;;;-1.16;100.00
52949;BME280;38812;50.942;3.644;2023-01-29T03:19:24;103077.41;;;-1.06;100.00
52949;BME280;38812;50.942;3.644;2023-01-29T03:21:56;103066.31;;;-1.05;100.00
52949;BME280;38812;50.942;3.644;2023-01-29T03:24:38;103074.22;;;-1.01;100.00
52949;BME280;38812;50.942;3.644;2023-01-29T03:27:27;103056.94;;;-0.89;100.00
52949;BME280;38812;50.942;3.644;2023-01-29T03:30:15;103055.47;;;-0.99;100.00
52949;BME280;38812;50.942;3.644;2023-01-29T03:33:05;103054.25;;;-0.91;100.00
52949;BME280;38812;50.942;3.644;2023-01-29T03:35:39;103049.19;;;-0.89;100.00
52949;BME280;38812;50.942;3.644;2023-01-29T03:38:08;103046.78;;;-0.86;100.00
52949;BME280;38812;50.942;3.644;2023-01-29T03:40:52;103044.38;;;-0.83;100.00
52949;BME280;38812;50.942;3.644;2023-01-29T03:43:34;103049.72;;;-0.80;100.00
52949;BME280;38812;50.942;3.644;2023-01-29T03:46:07;103042.97;;;-0.78;100.00
52949;BME280;38812;50.942;3.644;2023-01-29T03:51:39;103036.22;;;-0.76;100.00
52949;BME280;38812;50.942;3.644;2023-01-29T03:54:17;103041.75;;;-0.70;100.00
52949;BME280;38812;50.942;3.644;2023-01-29T03:57:05;103050.50;;;-0.68;100.00
52949;BME280;38812;50.942;3.644;2023-01-29T04:02:14;103042.56;;;-0.71;100.00
52949;BME280;38812;50.942;3.644;2023-01-29T04:04:45;103055.47;;;-0.71;100.00
52949;BME280;38812;50.942;3.644;2023-01-29T04:07:17;103041.75;;;-0.70;100.00
52949;BME280;38812;50.942;3.644;2023-01-29T04:10:08;103048.91;;;-0.66;100.00
52949;BME280;38812;50.942;3.644;2023-01-29T04:12:48;103049.84;;;-0.64;100.00
52949;BME280;38812;50.942;3.644;2023-01-29T04:15:16;103041.84;;;-0.54;100.00
52949;BME280;38812;50.942;3.644;2023-01-29T04:17:46;103033.94;;;-0.57;100.00
52949;BME280;38812;50.942;3.644;2023-01-29T04:20:12;103020.84;;;-0.60;100.00
52949;BME280;38812;50.942;3.644;2023-01-29T04:22:39;103027.16;;;-0.55;100.00
52949;BME280;38812;50.942;3.644;2023-01-29T04:25:09;103016.84;;;-0.55;100.00
52949;BME280;38812;50.942;3.644;2023-01-29T04:30:57;103031.09;;;-0.47;100.00
52949;BME280;38812;50.942;3.644;2023-01-29T04:42:21;103031.78;;;-0.35;100.00
52949;BME280;38812;50.942;3.644;2023-01-29T04:45:02;103022.25;;;-0.36;100.00
52949;BME280;38812;50.942;3.644;2023-01-29T04:53:12;103012.31;;;-0.29;100.00
52949;BME280;38812;50.942;3.644;2023-01-29T04:55:46;103022.00;;;-0.25;100.00
52949;BME280;38812;50.942;3.644;2023-01-29T05:00:53;103017.03;;;-0.22;100.00
52949;BME280;38812;50.942;3.644;2023-01-29T05:03:21;103002.56;;;-0.19;100.00
52949;BME280;38812;50.942;3.644;2023-01-29T05:05:50;103006.31;;;-0.14;100.00
52949;BME280;38812;50.942;3.644;2023-01-29T05:08:20;103013.06;;;-0.16;100.00
52949;BME280;38812;50.942;3.644;2023-01-29T05:10:48;102994.91;;;-0.17;100.00
52949;BME280;38812;50.942;3.644;2023-01-29T05:13:14;102995.09;;;-0.14;100.00
52949;BME280;38812;50.942;3.644;2023-01-29T05:18:36;102998.72;;;-0.11;100.00
52949;BME280;38812;50.942;3.644;2023-01-29T05:21:04;102999.00;;;-0.06;100.00
52949;BME280;38812;50.942;3.644;2023-01-29T05:23:31;102989.66;;;-0.04;100.00
52949;BME280;38812;50.942;3.644;2023-01-29T05:25:57;102979.94;;;-0.08;100.00
52949;BME280;38812;50.942;3.644;2023-01-29T05:28:22;102972.97;;;-0.09;100.00
52949;BME280;38812;50.942;3.644;2023-01-29T05:30:50;102960.97;;;-0.09;100.00
52949;BME280;38812;50.942;3.644;2023-01-29T05:33:29;102956.84;;;-0.05;100.00
52949;BME280;38812;50.942;3.644;2023-01-29T05:35:57;102967.69;;;0.04;100.00
52949;BME280;38812;50.942;3.644;2023-01-29T05:38:23;102970.25;;;0.04;100.00
52949;BME280;38812;50.942;3.644;2023-01-29T05:40:49;102968.47;;;0.03;100.00
52949;BME280;38812;50.942;3.644;2023-01-29T05:43:23;102970.63;;;0.10;100.00
52949;BME280;38812;50.942;3.644;2023-01-29T05:45:57;102972.03;;;0.05;100.00
52949;BME280;38812;50.942;3.644;2023-01-29T05:48:24;102969.72;;;0.10;100.00
52949;BME280;38812;50.942;3.644;2023-01-29T05:50:50;102961.72;;;0.05;100.00
52949;BME280;38812;50.942;3.644;2023-01-29T05:53:16;102971.25;;;0.06;100.00
52949;BME280;38812;50.942;3.644;2023-01-29T05:55:45;102978.03;;;0.04;100.00
52949;BME280;38812;50.942;3.644;2023-01-29T05:58:11;102992.91;;;0.08;100.00
52949;BME280;38812;50.942;3.644;2023-01-29T06:00:37;102980.78;;;0.07;100.00
52949;BME280;38812;50.942;3.644;2023-01-29T06:03:02;102980.06;;;0.10;100.00
52949;BME280;38812;50.942;3.644;2023-01-29T06:05:28;102983.63;;;0.12;100.00
52949;BME280;38812;50.942;3.644;2023-01-29T06:07:54;102979.34;;;0.12;100.00
52949;BME280;38812;50.942;3.644;2023-01-29T06:10:19;102969.19;;;0.15;100.00
52949;BME280;38812;50.942;3.644;2023-01-29T06:12:45;102958.13;;;0.18;100.00
52949;BME280;38812;50.942;3.644;2023-01-29T06:15:11;102955.03;;;0.25;100.00
52949;BME280;38812;50.942;3.644;2023-01-29T06:17:37;102963.06;;;0.29;100.00
52949;BME280;38812;50.942;3.644;2023-01-29T06:20:03;102959.84;;;0.33;100.00
52949;BME280;38812;50.942;3.644;2023-01-29T06:22:29;102931.59;;;0.22;100.00
52949;BME280;38812;50.942;3.644;2023-01-29T06:24:54;102957.41;;;0.37;100.00
52949;BME280;38812;50.942;3.644;2023-01-29T06:27:20;102930.97;;;0.26;100.00
52949;BME280;38812;50.942;3.644;2023-01-29T06:29:45;102955.72;;;0.37;100.00
52949;BME280;38812;50.942;3.644;2023-01-29T06:32:10;102927.75;;;0.30;100.00
52949;BME280;38812;50.942;3.644;2023-01-29T06:34:36;102942.25;;;0.43;100.00
52949;BME280;38812;50.942;3.644;2023-01-29T06:37:01;102942.38;;;0.46;100.00
52949;BME280;38812;50.942;3.644;2023-01-29T06:39:27;102938.00;;;0.45;100.00
52949;BME280;38812;50.942;3.644;2023-01-29T06:41:52;102943.34;;;0.48;100.00
52949;BME280;38812;50.942;3.644;2023-01-29T06:44:17;102936.75;;;0.53;100.00
52949;BME280;38812;50.942;3.644;2023-01-29T06:46:43;102942.25;;;0.59;100.00
52949;BME280;38812;50.942;3.644;2023-01-29T06:49:08;102930.34;;;0.46;100.00
52949;BME280;38812;50.942;3.644;2023-01-29T06:51:33;102937.53;;;0.52;100.00
52949;BME280;38812;50.942;3.644;2023-01-29T06:53:59;102926.78;;;0.44;100.00
52949;BME280;38812;50.942;3.644;2023-01-29T06:56:24;102940.63;;;0.61;100.00
52949;BME280;38812;50.942;3.644;2023-01-29T06:58:50;102936.91;;;0.56;100.00
52949;BME280;38812;50.942;3.644;2023-01-29T07:01:15;102927.84;;;0.48;100.00
52949;BME280;38812;50.942;3.644;2023-01-29T07:03:41;102938.09;;;0.46;100.00
52949;BME280;38812;50.942;3.644;2023-01-29T07:06:08;102929.44;;;0.46;100.00
52949;BME280;38812;50.942;3.644;2023-01-29T07:08:37;102940.13;;;0.52;100.00
52949;BME280;38812;50.942;3.644;2023-01-29T07:11:03;102925.25;;;0.48;100.00
52949;BME280;38812;50.942;3.644;2023-01-29T07:13:29;102939.50;;;0.56;100.00
52949;BME280;38812;50.942;3.644;2023-01-29T07:15:58;102930.69;;;0.52;100.00
52949;BME280;38812;50.942;3.644;2023-01-29T07:18:25;102937.97;;;0.59;100.00
52949;BME280;38812;50.942;3.644;2023-01-29T07:20:50;102940.47;;;0.58;100.00
52949;BME280;38812;50.942;3.644;2023-01-29T07:23:15;102951.69;;;0.58;100.00
52949;BME280;38812;50.942;3.644;2023-01-29T07:25:42;102954.53;;;0.63;100.00
52949;BME280;38812;50.942;3.644;2023-01-29T07:28:07;102942.25;;;0.59;100.00
52949;BME280;38812;50.942;3.644;2023-01-29T07:30:32;102948.59;;;0.65;100.00
52949;BME280;38812;50.942;3.644;2023-01-29T07:33:05;102940.78;;;0.64;100.00
52949;BME280;38812;50.942;3.644;2023-01-29T07:35:35;102936.44;;;0.63;100.00
52949;BME280;38812;50.942;3.644;2023-01-29T07:38:01;102938.41;;;0.68;100.00
52949;BME280;38812;50.942;3.644;2023-01-29T07:40:26;102935.75;;;0.67;100.00
52949;BME280;38812;50.942;3.644;2023-01-29T07:42:57;102933.34;;;0.70;100.00
52949;BME280;38812;50.942;3.644;2023-01-29T07:45:23;102961.16;;;0.74;100.00
52949;BME280;38812;50.942;3.644;2023-01-29T07:47:51;102950.97;;;0.77;100.00
52949;BME280;38812;50.942;3.644;2023-01-29T07:50:17;102943.03;;;0.74;100.00
52949;BME280;38812;50.942;3.644;2023-01-29T07:52:42;102950.25;;;0.80;100.00
52949;BME280;38812;50.942;3.644;2023-01-29T07:55:08;102953.00;;;0.83;100.00
52949;BME280;38812;50.942;3.644;2023-01-29T07:57:33;102953.97;;;0.85;100.00
52949;BME280;38812;50.942;3.644;2023-01-29T07:59:59;102946.28;;;0.86;100.00
52949;BME280;38812;50.942;3.644;2023-01-29T08:02:24;102955.16;;;0.91;100.00
52949;BME280;38812;50.942;3.644;2023-01-29T08:04:49;102950.94;;;0.93;100.00
52949;BME280;38812;50.942;3.644;2023-01-29T08:07:15;102938.72;;;0.91;100.00
52949;BME280;38812;50.942;3.644;2023-01-29T08:09:40;102938.25;;;0.98;100.00
52949;BME280;38812;50.942;3.644;2023-01-29T08:12:06;102937.19;;;0.94;100.00
52949;BME280;38812;50.942;3.644;2023-01-29T08:14:31;102947.06;;;1.01;100.00
52949;BME280;38812;50.942;3.644;2023-01-29T08:16:56;102937.50;;;1.00;100.00
52949;BME280;38812;50.942;3.644;2023-01-29T08:19:22;102922.78;;;0.99;100.00
52949;BME280;38812;50.942;3.644;2023-01-29T08:21:47;102942.22;;;1.08;100.00
52949;BME280;38812;50.942;3.644;2023-01-29T08:24:12;102930.88;;;1.06;100.00
52949;BME280;38812;50.942;3.644;2023-01-29T08:26:38;102935.34;;;1.08;100.00
52949;BME280;38812;50.942;3.644;2023-01-29T08:29:03;102932.78;;;1.10;100.00
52949;BME280;38812;50.942;3.644;2023-01-29T08:31:29;102947.03;;;1.18;100.00
52949;BME280;38812;50.942;3.644;2023-01-29T08:33:54;102934.41;;;1.24;100.00
52949;BME280;38812;50.942;3.644;2023-01-29T08:36:20;102905.44;;;1.15;100.00
52949;BME280;38812;50.942;3.644;2023-01-29T08:38:45;102925.91;;;1.26;100.00
52949;BME280;38812;50.942;3.644;2023-01-29T08:41:10;102934.19;;;1.37;100.00
52949;BME280;38812;50.942;3.644;2023-01-29T08:43:36;102931.75;;;1.40;100.00
52949;BME280;38812;50.942;3.644;2023-01-29T08:46:06;102925.41;;;1.51;100.00
52949;BME280;38812;50.942;3.644;2023-01-29T08:48:32;102932.22;;;1.49;100.00
52949;BME280;38812;50.942;3.644;2023-01-29T08:50:58;102943.00;;;1.58;100.00
52949;BME280;38812;50.942;3.644;2023-01-29T08:53:24;102939.03;;;1.65;100.00
52949;BME280;38812;50.942;3.644;2023-01-29T08:55:50;102942.66;;;1.68;100.00
52949;BME280;38812;50.942;3.644;2023-01-29T08:58:16;102942.00;;;1.73;100.00
52949;BME280;38812;50.942;3.644;2023-01-29T09:00:41;102936.25;;;1.80;100.00
52949;BME280;38812;50.942;3.644;2023-01-29T09:03:07;102938.28;;;1.85;100.00
52949;BME280;38812;50.942;3.644;2023-01-29T09:05:33;102912.78;;;1.77;100.00
52949;BME280;38812;50.942;3.644;2023-01-29T09:07:59;102924.44;;;1.85;100.00
52949;BME280;38812;50.942;3.644;2023-01-29T09:10:24;102927.16;;;1.88;100.00
52949;BME280;38812;50.942;3.644;2023-01-29T09:12:50;102928.94;;;1.89;100.00
52949;BME280;38812;50.942;3.644;2023-01-29T09:15:15;102925.47;;;1.88;100.00
52949;BME280;38812;50.942;3.644;2023-01-29T09:17:40;102919.47;;;1.89;100.00
52949;BME280;38812;50.942;3.644;2023-01-29T09:20:07;102932.25;;;2.04;100.00
52949;BME280;38812;50.942;3.644;2023-01-29T09:22:34;102921.13;;;2.06;100.00
52949;BME280;38812;50.942;3.644;2023-01-29T09:24:59;102923.13;;;2.12;100.00
52949;BME280;38812;50.942;3.644;2023-01-29T09:27:25;102923.81;;;2.08;100.00
52949;BME280;38812;50.942;3.644;2023-01-29T09:29:50;102930.91;;;2.12;100.00
52949;BME280;38812;50.942;3.644;2023-01-29T09:32:15;102916.69;;;2.04;100.00
52949;BME280;38812;50.942;3.644;2023-01-29T09:34:41;102907.28;;;2.06;100.00
52949;BME280;38812;50.942;3.644;2023-01-29T09:37:06;102912.41;;;2.04;100.00
52949;BME280;38812;50.942;3.644;2023-01-29T09:39:32;102922.84;;;2.06;100.00
52949;BME280;38812;50.942;3.644;2023-01-29T09:47:24;102911.63;;;1.88;100.00
52949;BME280;38812;50.942;3.644;2023-01-29T09:50:00;102915.84;;;1.86;100.00
52949;BME280;38812;50.942;3.644;2023-01-29T09:52:32;102897.31;;;1.78;100.00
52949;BME280;38812;50.942;3.644;2023-01-29T09:57:52;102907.25;;;1.87;100.00
52949;BME280;38812;50.942;3.644;2023-01-29T10:00:29;102904.94;;;1.93;100.00
52949;BME280;38812;50.942;3.644;2023-01-29T10:08:07;102908.53;;;2.14;100.00
52949;BME280;38812;50.942;3.644;2023-01-29T10:16:48;102905.81;;;2.30;100.00
52949;BME280;38812;50.942;3.644;2023-01-29T10:25:06;102891.88;;;2.48;100.00
52949;BME280;38812;50.942;3.644;2023-01-29T10:27:38;102899.97;;;2.54;100.00
52949;BME280;38812;50.942;3.644;2023-01-29T10:30:30;102900.25;;;2.60;100.00
52949;BME280;38812;50.942;3.644;2023-01-29T10:33:01;102890.41;;;2.53;100.00
52949;BME280;38812;50.942;3.644;2023-01-29T10:35:34;102903.75;;;2.62;100.00
52949;BME280;38812;50.942;3.644;2023-01-29T10:43:35;102897.22;;;2.70;100.00
52949;BME280;38812;50.942;3.644;2023-01-29T10:46:07;102895.72;;;2.75;100.00
52949;BME280;38812;50.942;3.644;2023-01-29T10:54:02;102889.88;;;3.00;100.00
52949;BME280;38812;50.942;3.644;2023-01-29T10:57:00;102884.22;;;3.10;100.00
52949;BME280;38812;50.942;3.644;2023-01-29T11:02:22;102868.41;;;3.25;100.00
52949;BME280;38812;50.942;3.644;2023-01-29T11:04:47;102852.81;;;3.25;100.00
52949;BME280;38812;50.942;3.644;2023-01-29T11:07:15;102859.31;;;3.36;100.00
52949;BME280;38812;50.942;3.644;2023-01-29T11:09:55;102861.09;;;3.37;100.00
52949;BME280;38812;50.942;3.644;2023-01-29T11:12:24;102827.88;;;3.30;100.00
52949;BME280;38812;50.942;3.644;2023-01-29T11:14:55;102834.88;;;3.53;100.00
52949;BME280;38812;50.942;3.644;2023-01-29T11:17:24;102817.75;;;3.58;100.00
52949;BME280;38812;50.942;3.644;2023-01-29T11:19:51;102814.66;;;3.67;100.00
52949;BME280;38812;50.942;3.644;2023-01-29T11:22:21;102803.31;;;3.65;100.00
52949;BME280;38812;50.942;3.644;2023-01-29T11:25:16;102794.75;;;3.67;100.00
52949;BME280;38812;50.942;3.644;2023-01-29T11:27:48;102796.59;;;3.71;100.00
52949;BME280;38812;50.942;3.644;2023-01-29T11:30:25;102779.28;;;3.72;100.00
52949;BME280;38812;50.942;3.644;2023-01-29T11:33:04;102778.00;;;3.83;100.00
52949;BME280;38812;50.942;3.644;2023-01-29T11:35:30;102785.84;;;3.85;100.00
52949;BME280;38812;50.942;3.644;2023-01-29T11:38:18;102777.34;;;3.89;100.00
52949;BME280;38812;50.942;3.644;2023-01-29T11:40:45;102773.41;;;4.00;100.00
52949;BME280;38812;50.942;3.644;2023-01-29T11:45:38;102774.19;;;4.21;100.00
52949;BME280;38812;50.942;3.644;2023-01-29T11:48:13;102770.75;;;4.22;100.00
52949;BME280;38812;50.942;3.644;2023-01-29T11:50:39;102768.31;;;4.27;100.00
52949;BME280;38812;50.942;3.644;2023-01-29T11:53:06;102757.50;;;4.16;100.00
52949;BME280;38812;50.942;3.644;2023-01-29T11:55:44;102750.13;;;4.03;100.00
52949;BME280;38812;50.942;3.644;2023-01-29T11:58:30;102758.91;;;3.83;100.00
52949;BME280;38812;50.942;3.644;2023-01-29T12:00:57;102757.97;;;3.81;100.00
52949;BME280;38812;50.942;3.644;2023-01-29T12:03:44;102760.75;;;3.85;100.00
52949;BME280;38812;50.942;3.644;2023-01-29T12:06:19;102754.84;;;3.89;100.00
52949;BME280;38812;50.942;3.644;2023-01-29T12:08:57;102753.13;;;3.90;100.00
52949;BME280;38812;50.942;3.644;2023-01-29T12:13:55;102749.63;;;3.89;100.00
52949;BME280;38812;50.942;3.644;2023-01-29T12:16:26;102745.34;;;3.91;100.00
52949;BME280;38812;50.942;3.644;2023-01-29T12:19:24;102737.81;;;3.99;100.00
52949;BME280;38812;50.942;3.644;2023-01-29T12:22:00;102732.75;;;4.02;100.00
52949;BME280;38812;50.942;3.644;2023-01-29T12:24:40;102713.22;;;3.89;100.00
52949;BME280;38812;50.942;3.644;2023-01-29T12:27:43;102726.44;;;3.95;100.00
52949;BME280;38812;50.942;3.644;2023-01-29T12:33:10;102715.72;;;3.86;100.00
52949;BME280;38812;50.942;3.644;2023-01-29T12:35:45;102697.16;;;3.77;100.00
52949;BME280;38812;50.942;3.644;2023-01-29T12:38:20;102703.66;;;3.88;100.00
52949;BME280;38812;50.942;3.644;2023-01-29T12:40:48;102699.13;;;3.83;100.00
52949;BME280;38812;50.942;3.644;2023-01-29T12:43:17;102701.00;;;3.87;100.00
52949;BME280;38812;50.942;3.644;2023-01-29T12:45:47;102684.44;;;3.85;100.00
52949;BME280;38812;50.942;3.644;2023-01-29T12:48:19;102686.16;;;3.84;100.00
52949;BME280;38812;50.942;3.644;2023-01-29T12:50:46;102682.03;;;3.91;100.00
52949;BME280;38812;50.942;3.644;2023-01-29T12:55:47;102663.72;;;3.86;100.00
52949;BME280;38812;50.942;3.644;2023-01-29T12:58:34;102665.53;;;3.89;100.00
52949;BME280;38812;50.942;3.644;2023-01-29T13:01:37;102655.09;;;3.87;100.00
52949;BME280;38812;50.942;3.644;2023-01-29T13:04:18;102652.47;;;3.87;100.00
52949;BME280;38812;50.942;3.644;2023-01-29T13:06:51;102656.03;;;3.91;100.00
52949;BME280;38812;50.942;3.644;2023-01-29T13:09:23;102628.97;;;3.84;100.00
52949;BME280;38812;50.942;3.644;2023-01-29T13:12:04;102632.88;;;3.97;100.00
52949;BME280;38812;50.942;3.644;2023-01-29T13:14:50;102630.16;;;3.94;100.00
52949;BME280;38812;50.942;3.644;2023-01-29T13:19:58;102603.84;;;3.85;100.00
52949;BME280;38812;50.942;3.644;2023-01-29T13:22:28;102619.97;;;4.00;100.00
52949;BME280;38812;50.942;3.644;2023-01-29T13:24:56;102610.41;;;3.99;100.00
52949;BME280;38812;50.942;3.644;2023-01-29T13:27:27;102597.00;;;3.87;100.00
52949;BME280;38812;50.942;3.644;2023-01-29T13:29:54;102603.44;;;3.98;100.00
52949;BME280;38812;50.942;3.644;2023-01-29T13:32:31;102593.25;;;4.04;100.00
52949;BME280;38812;50.942;3.644;2023-01-29T13:35:02;102583.78;;;4.06;100.00
52949;BME280;38812;50.942;3.644;2023-01-29T13:37:35;102590.03;;;4.12;100.00
52949;BME280;38812;50.942;3.644;2023-01-29T13:40:04;102572.88;;;4.18;100.00
52949;BME280;38812;50.942;3.644;2023-01-29T13:42:45;102569.28;;;4.14;100.00
52949;BME280;38812;50.942;3.644;2023-01-29T13:45:24;102580.84;;;4.22;100.00
52949;BME280;38812;50.942;3.644;2023-01-29T13:47:52;102578.28;;;4.24;100.00
52949;BME280;38812;50.942;3.644;2023-01-29T13:50:20;102573.13;;;4.25;100.00
52949;BME280;38812;50.942;3.644;2023-01-29T13:52:52;102576.63;;;4.26;100.00
52949;BME280;38812;50.942;3.644;2023-01-29T13:55:22;102571.41;;;4.26;100.00
52949;BME280;38812;50.942;3.644;2023-01-29T13:57:54;102562.47;;;4.18;100.00
52949;BME280;38812;50.942;3.644;2023-01-29T14:06:00;102570.22;;;4.16;100.00
52949;BME280;38812;50.942;3.644;2023-01-29T14:13:39;102570.44;;;4.22;100.00
52949;BME280;38812;50.942;3.644;2023-01-29T14:18:35;102543.47;;;4.20;100.00
52949;BME280;38812;50.942;3.644;2023-01-29T14:23:45;102541.88;;;4.24;100.00
52949;BME280;38812;50.942;3.644;2023-01-29T14:26:39;102547.75;;;4.18;100.00
52949;BME280;38812;50.942;3.644;2023-01-29T14:31:51;102550.34;;;4.18;100.00
52949;BME280;38812;50.942;3.644;2023-01-29T14:34:22;102554.44;;;4.10;100.00
52949;BME280;38812;50.942;3.644;2023-01-29T14:36:52;102543.78;;;4.02;100.00
52949;BME280;38812;50.942;3.644;2023-01-29T14:39:33;102533.94;;;3.94;100.00
52949;BME280;38812;50.942;3.644;2023-01-29T14:42:02;102554.84;;;3.97;100.00
52949;BME280;38812;50.942;3.644;2023-01-29T14:47:19;102540.97;;;3.96;100.00
52949;BME280;38812;50.942;3.644;2023-01-29T14:49:55;102543.50;;;3.95;100.00
52949;BME280;38812;50.942;3.644;2023-01-29T14:52:25;102543.50;;;3.95;100.00
52949;BME280;38812;50.942;3.644;2023-01-29T14:54:54;102544.34;;;3.94;100.00
52949;BME280;38812;50.942;3.644;2023-01-29T14:57:22;102534.88;;;3.96;100.00
52949;BME280;38812;50.942;3.644;2023-01-29T14:59:53;102521.94;;;3.97;100.00
52949;BME280;38812;50.942;3.644;2023-01-29T15:02:28;102529.16;;;4.06;100.00
52949;BME280;38812;50.942;3.644;2023-01-29T15:05:02;102528.28;;;4.05;100.00
52949;BME280;38812;50.942;3.644;2023-01-29T15:07:33;102522.34;;;4.09;100.00